sensor_id;sensor_type;location;lat;lon;timestamp;pressure;altitude;pressure_sealevel;temperature;humidity
8416;BME280;4245;42.120;24.732;2023-05-19T00:00:18;99329.97;;;16.08;97.82
8416;BME280;4245;42.120;24.732;2023-05-19T00:02:46;99322.47;;;16.02;97.95
8416;BME280;4245;42.120;24.732;2023-05-19T00:05:13;99325.03;;;16.04;97.42
8416;BME280;4245;42.120;24.732;2023-05-19T00:07:43;99327.16;;;16.10;97.70
8416;BME280;4245;42.120;24.732;2023-05-19T00:10:13;99339.28;;;16.14;97.60
8416;BME280;4245;42.120;24.732;2023-05-19T00:12:40;99318.97;;;16.12;97.73
8416;BME280;4245;42.120;24.732;2023-05-19T00:15:09;99320.94;;;16.09;97.71
8416;BME280;4245;42.120;24.732;2023-05-19T00:17:36;99317.84;;;16.14;97.08
8416;BME280;4245;42.120;24.732;2023-05-19T00:20:07;99314.72;;;16.19;96.76
8416;BME280;4245;42.120;24.732;2023-05-19T00:22:36;99314.16;;;16.15;96.79
8416;BME280;4245;42.120;24.732;2023-05-19T00:25:03;99314.31;;;16.14;97.05
8416;BME280;4245;42.120;24.732;2023-05-19T00:27:32;99320.66;;;16.13;95.81
8416;BME280;4245;42.120;24.732;2023-05-19T00:29:58;99322.78;;;16.19;95.78
8416;BME280;4245;42.120;24.732;2023-05-19T00:32:25;99307.13;;;16.14;95.36
8416;BME280;4245;42.120;24.732;2023-05-19T00:34:52;99320.22;;;16.17;95.17
8416;BME280;4245;42.120;24.732;2023-05-19T00:37:19;99315.72;;;16.18;95.47
8416;BME280;4245;42.120;24.732;2023-05-19T00:39:46;99309.38;;;16.19;95.83
8416;BME280;4245;42.120;24.732;2023-05-19T00:42:13;99313.75;;;16.20;94.68
8416;BME280;4245;42.120;24.732;2023-05-19T00:44:41;99304.72;;;16.11;95.45
8416;BME280;4245;42.120;24.732;2023-05-19T00:47:08;99321.91;;;16.18;94.06
8416;BME280;4245;42.120;24.732;2023-05-19T00:49:35;99311.75;;;16.22;93.90
8416;BME280;4245;42.120;24.732;2023-05-19T00:52:02;99312.19;;;16.17;93.81
8416;BME280;4245;42.120;24.732;2023-05-19T00:54:32;99308.25;;;16.21;93.70
8416;BME280;4245;42.120;24.732;2023-05-19T00:57:00;99303.16;;;16.18;93.85
8416;BME280;4245;42.120;24.732;2023-05-19T00:59:27;99301.19;;;16.20;94.18
8416;BME280;4245;42.120;24.732;2023-05-19T01:01:55;99320.38;;;16.25;92.96
8416;BME280;4245;42.120;24.732;2023-05-19T01:04:22;99303.72;;;16.22;93.73
8416;BME280;4245;42.120;24.732;2023-05-19T01:06:50;99301.75;;;16.14;94.42
8416;BME280;4245;42.120;24.732;2023-05-19T01:09:20;99300.47;;;16.18;93.76
8416;BME280;4245;42.120;24.732;2023-05-19T01:11:47;99329.69;;;16.21;93.22
8416;BME280;4245;42.120;24.732;2023-05-19T01:14:14;99314.84;;;16.17;93.40
8416;BME280;4245;42.120;24.732;2023-05-19T01:16:44;99302.91;;;16.12;94.08
8416;BME280;4245;42.120;24.732;2023-05-19T01:19:30;99312.34;;;16.06;94.03
8416;BME280;4245;42.120;24.732;2023-05-19T01:22:22;99294.56;;;16.05;94.11
8416;BME280;4245;42.120;24.732;2023-05-19T01:25:12;99300.66;;;16.07;94.02
8416;BME280;4245;42.120;24.732;2023-05-19T01:28:09;99305.84;;;15.99;94.69
8416;BME280;4245;42.120;24.732;2023-05-19T01:30:43;99302.59;;;16.05;93.91
8416;BME280;4245;42.120;24.732;2023-05-19T01:33:13;99309.06;;;16.12;93.66
8416;BME280;4245;42.120;24.732;2023-05-19T01:35:42;99308.81;;;16.15;93.13
8416;BME280;4245;42.120;24.732;2023-05-19T01:38:10;99300.78;;;16.15;93.15
8416;BME280;4245;42.120;24.732;2023-05-19T01:40:38;99299.63;;;16.08;92.97
8416;BME280;4245;42.120;24.732;2023-05-19T01:43:07;99304.13;;;16.17;92.57
8416;BME280;4245;42.120;24.732;2023-05-19T01:45:35;99313.63;;;16.12;92.78
8416;BME280;4245;42.120;24.732;2023-05-19T01:48:04;99309.66;;;16.06;93.32
8416;BME280;4245;42.120;24.732;2023-05-19T01:50:31;99312.19;;;15.98;93.84
8416;BME280;4245;42.120;24.732;2023-05-19T01:52:59;99305.28;;;16.15;93.31
8416;BME280;4245;42.120;24.732;2023-05-19T01:55:26;99305.72;;;16.20;92.64
8416;BME280;4245;42.120;24.732;2023-05-19T01:58:01;99309.66;;;16.16;92.97
8416;BME280;4245;42.120;24.732;2023-05-19T02:00:35;99306.81;;;16.07;93.13
8416;BME280;4245;42.120;24.732;2023-05-19T02:03:18;99312.34;;;16.16;92.29
8416;BME280;4245;42.120;24.732;2023-05-19T02:05:51;99312.91;;;16.09;92.33
8416;BME280;4245;42.120;24.732;2023-05-19T02:08:26;99318.97;;;16.21;92.04
8416;BME280;4245;42.120;24.732;2023-05-19T02:10:59;99316.00;;;16.15;92.08
8416;BME280;4245;42.120;24.732;2023-05-19T02:13:30;99318.97;;;16.12;92.70
8416;BME280;4245;42.120;24.732;2023-05-19T02:16:02;99334.75;;;16.15;91.78
8416;BME280;4245;42.120;24.732;2023-05-19T02:18:32;99340.00;;;16.06;91.76
8416;BME280;4245;42.120;24.732;2023-05-19T02:20:59;99321.50;;;16.13;92.04
8416;BME280;4245;42.120;24.732;2023-05-19T02:23:26;99324.34;;;16.12;92.08
8416;BME280;4245;42.120;24.732;2023-05-19T02:25:53;99322.09;;;16.17;91.43
8416;BME280;4245;42.120;24.732;2023-05-19T02:28:19;99326.59;;;16.16;91.63
8416;BME280;4245;42.120;24.732;2023-05-19T02:30:46;99326.72;;;16.15;92.18
8416;BME280;4245;42.120;24.732;2023-05-19T02:33:13;99329.28;;;16.16;91.67
8416;BME280;4245;42.120;24.732;2023-05-19T02:35:41;99324.34;;;16.12;91.71
8416;BME280;4245;42.120;24.732;2023-05-19T02:38:08;99339.56;;;16.21;91.29
8416;BME280;4245;42.120;24.732;2023-05-19T02:40:35;99332.22;;;16.13;91.16
8416;BME280;4245;42.120;24.732;2023-05-19T02:43:01;99315.72;;;16.18;91.60
8416;BME280;4245;42.120;24.732;2023-05-19T02:45:28;99324.03;;;16.15;91.90
8416;BME280;4245;42.120;24.732;2023-05-19T02:47:55;99321.38;;;16.05;91.94
8416;BME280;4245;42.120;24.732;2023-05-19T02:50:22;99322.47;;;16.02;92.12
8416;BME280;4245;42.120;24.732;2023-05-19T02:52:50;99318.13;;;16.01;92.33
8416;BME280;4245;42.120;24.732;2023-05-19T02:55:18;99328.69;;;16.03;92.15
8416;BME280;4245;42.120;24.732;2023-05-19T02:57:45;99320.81;;;16.11;91.93
8416;BME280;4245;42.120;24.732;2023-05-19T03:00:12;99318.97;;;16.12;92.10
8416;BME280;4245;42.120;24.732;2023-05-19T03:02:39;99323.63;;;16.00;93.37
8416;BME280;4245;42.120;24.732;2023-05-19T03:05:09;99319.78;;;15.93;94.05
8416;BME280;4245;42.120;24.732;2023-05-19T03:07:35;99323.75;;;15.98;93.21
8416;BME280;4245;42.120;24.732;2023-05-19T03:10:05;99338.41;;;16.04;93.73
8416;BME280;4245;42.120;24.732;2023-05-19T03:12:32;99328.00;;;15.91;94.40
8416;BME280;4245;42.120;24.732;2023-05-19T03:14:59;99339.56;;;15.92;94.71
8416;BME280;4245;42.120;24.732;2023-05-19T03:17:26;99329.81;;;15.91;94.74
8416;BME280;4245;42.120;24.732;2023-05-19T03:19:58;99331.09;;;15.96;95.21
8416;BME280;4245;42.120;24.732;2023-05-19T03:22:25;99338.84;;;15.90;96.15
8416;BME280;4245;42.120;24.732;2023-05-19T03:24:51;99345.91;;;15.91;95.71
8416;BME280;4245;42.120;24.732;2023-05-19T03:27:20;99335.88;;;15.93;96.15
8416;BME280;4245;42.120;24.732;2023-05-19T03:29:46;99340.00;;;15.97;96.00
8416;BME280;4245;42.120;24.732;2023-05-19T03:32:13;99343.47;;;15.88;96.88
8416;BME280;4245;42.120;24.732;2023-05-19T03:34:40;99350.28;;;15.92;96.77
8416;BME280;4245;42.120;24.732;2023-05-19T03:37:06;99343.34;;;15.99;96.30
8416;BME280;4245;42.120;24.732;2023-05-19T03:39:35;99341.66;;;15.88;97.41
8416;BME280;4245;42.120;24.732;2023-05-19T03:42:01;99350.13;;;15.93;96.30
8416;BME280;4245;42.120;24.732;2023-05-19T03:44:29;99355.34;;;15.95;96.13
8416;BME280;4245;42.120;24.732;2023-05-19T03:46:56;99349.69;;;15.98;96.08
8416;BME280;4245;42.120;24.732;2023-05-19T03:49:23;99361.25;;;16.08;95.03
8416;BME280;4245;42.120;24.732;2023-05-19T03:51:50;99355.91;;;16.08;95.78
8416;BME280;4245;42.120;24.732;2023-05-19T03:54:16;99365.66;;;16.09;94.76
8416;BME280;4245;42.120;24.732;2023-05-19T03:56:45;99351.56;;;16.07;95.18
8416;BME280;4245;42.120;24.732;2023-05-19T03:59:12;99353.94;;;16.20;94.16
8416;BME280;4245;42.120;24.732;2023-05-19T04:01:40;99360.41;;;16.17;94.58
8416;BME280;4245;42.120;24.732;2023-05-19T04:04:07;99358.03;;;16.24;94.26
8416;BME280;4245;42.120;24.732;2023-05-19T04:06:33;99367.47;;;16.18;94.21
8416;BME280;4245;42.120;24.732;2023-05-19T04:09:01;99358.47;;;16.19;94.80
8416;BME280;4245;42.120;24.732;2023-05-19T04:11:29;99365.09;;;16.25;94.04
8416;BME280;4245;42.120;24.732;2023-05-19T04:13:56;99377.50;;;16.35;93.34
8416;BME280;4245;42.120;24.732;2023-05-19T04:16:22;99371.44;;;16.24;93.51
8416;BME280;4245;42.120;24.732;2023-05-19T04:18:50;99361.00;;;16.30;93.42
8416;BME280;4245;42.120;24.732;2023-05-19T04:21:17;99369.31;;;16.46;92.92
8416;BME280;4245;42.120;24.732;2023-05-19T04:23:46;99363.09;;;16.46;92.56
8416;BME280;4245;42.120;24.732;2023-05-19T04:26:13;99372.16;;;16.45;93.07
8416;BME280;4245;42.120;24.732;2023-05-19T04:28:40;99367.75;;;16.53;92.89
8416;BME280;4245;42.120;24.732;2023-05-19T04:31:09;99367.63;;;16.55;92.68
8416;BME280;4245;42.120;24.732;2023-05-19T04:33:37;99376.09;;;16.50;92.91
8416;BME280;4245;42.120;24.732;2023-05-19T04:36:06;99374.41;;;16.49;92.39
8416;BME280;4245;42.120;24.732;2023-05-19T04:38:34;99374.25;;;16.61;92.39
8416;BME280;4245;42.120;24.732;2023-05-19T04:41:01;99385.25;;;16.48;92.95
8416;BME280;4245;42.120;24.732;2023-05-19T04:43:28;99388.22;;;16.55;92.68
8416;BME280;4245;42.120;24.732;2023-05-19T04:45:55;99401.06;;;16.61;91.79
8416;BME280;4245;42.120;24.732;2023-05-19T04:48:23;99386.69;;;16.62;91.57
8416;BME280;4245;42.120;24.732;2023-05-19T04:50:50;99393.56;;;16.83;90.51
8416;BME280;4245;42.120;24.732;2023-05-19T04:53:18;99390.03;;;16.92;90.07
8416;BME280;4245;42.120;24.732;2023-05-19T04:55:46;99402.94;;;17.16;88.88
8416;BME280;4245;42.120;24.732;2023-05-19T04:58:13;99404.81;;;17.43;87.27
8416;BME280;4245;42.120;24.732;2023-05-19T05:00:41;99401.19;;;17.71;85.81
8416;BME280;4245;42.120;24.732;2023-05-19T05:03:08;99406.34;;;17.83;84.53
8416;BME280;4245;42.120;24.732;2023-05-19T05:05:34;99409.38;;;17.97;82.50
8416;BME280;4245;42.120;24.732;2023-05-19T05:08:01;99401.09;;;18.08;82.33
8416;BME280;4245;42.120;24.732;2023-05-19T05:10:30;99405.09;;;18.22;81.73
8416;BME280;4245;42.120;24.732;2023-05-19T05:12:57;99414.41;;;18.28;81.42
8416;BME280;4245;42.120;24.732;2023-05-19T05:15:25;99416.56;;;18.24;82.35
8416;BME280;4245;42.120;24.732;2023-05-19T05:17:54;99425.41;;;18.34;81.88
8416;BME280;4245;42.120;24.732;2023-05-19T05:20:21;99425.09;;;18.55;80.56
8416;BME280;4245;42.120;24.732;2023-05-19T05:22:49;99419.31;;;18.50;79.54
8416;BME280;4245;42.120;24.732;2023-05-19T05:25:17;99416.56;;;18.59;79.26
8416;BME280;4245;42.120;24.732;2023-05-19T05:27:45;99433.28;;;18.63;78.83
8416;BME280;4245;42.120;24.732;2023-05-19T05:30:12;99417.13;;;18.63;79.92
8416;BME280;4245;42.120;24.732;2023-05-19T05:32:39;99419.88;;;18.71;80.36
8416;BME280;4245;42.120;24.732;2023-05-19T05:35:06;99428.56;;;18.83;79.75
8416;BME280;4245;42.120;24.732;2023-05-19T05:37:33;99417.72;;;18.75;78.72
8416;BME280;4245;42.120;24.732;2023-05-19T05:40:00;99447.16;;;18.76;78.36
8416;BME280;4245;42.120;24.732;2023-05-19T05:42:28;99431.06;;;18.84;79.39
8416;BME280;4245;42.120;24.732;2023-05-19T05:44:56;99419.47;;;18.84;78.33
8416;BME280;4245;42.120;24.732;2023-05-19T05:47:23;99426.53;;;18.85;78.40
8416;BME280;4245;42.120;24.732;2023-05-19T05:49:50;99465.13;;;19.11;77.21
8416;BME280;4245;42.120;24.732;2023-05-19T05:52:18;99445.19;;;19.04;77.21
8416;BME280;4245;42.120;24.732;2023-05-19T05:54:47;99436.78;;;19.33;76.30
8416;BME280;4245;42.120;24.732;2023-05-19T05:57:14;99438.94;;;19.21;76.74
8416;BME280;4245;42.120;24.732;2023-05-19T05:59:41;99427.31;;;19.46;76.74
8416;BME280;4245;42.120;24.732;2023-05-19T06:02:11;99436.59;;;19.86;75.35
8416;BME280;4245;42.120;24.732;2023-05-19T06:04:37;99450.63;;;19.98;74.17
8416;BME280;4245;42.120;24.732;2023-05-19T06:07:05;99449.22;;;19.85;73.73
8416;BME280;4245;42.120;24.732;2023-05-19T06:09:31;99447.63;;;19.67;76.08
8416;BME280;4245;42.120;24.732;2023-05-19T06:11:58;99449.44;;;20.00;74.22
8416;BME280;4245;42.120;24.732;2023-05-19T06:14:25;99451.44;;;20.32;73.25
8416;BME280;4245;42.120;24.732;2023-05-19T06:16:52;99456.50;;;20.35;73.00
8416;BME280;4245;42.120;24.732;2023-05-19T06:19:20;99455.66;;;20.34;74.23
8416;BME280;4245;42.120;24.732;2023-05-19T06:21:49;99467.69;;;20.80;73.39
8416;BME280;4245;42.120;24.732;2023-05-19T06:24:16;99464.97;;;20.72;71.45
8416;BME280;4245;42.120;24.732;2023-05-19T06:26:42;99464.50;;;20.19;74.41
8416;BME280;4245;42.120;24.732;2023-05-19T06:29:09;99463.41;;;19.95;76.01
8416;BME280;4245;42.120;24.732;2023-05-19T06:31:36;99470.78;;;20.27;75.14
8416;BME280;4245;42.120;24.732;2023-05-19T06:34:03;99475.78;;;20.64;72.73
8416;BME280;4245;42.120;24.732;2023-05-19T06:36:31;99475.97;;;20.79;71.45
8416;BME280;4245;42.120;24.732;2023-05-19T06:38:59;99481.69;;;20.84;71.66
8416;BME280;4245;42.120;24.732;2023-05-19T06:41:26;99487.13;;;21.16;71.03
8416;BME280;4245;42.120;24.732;2023-05-19T06:43:52;99481.88;;;20.99;71.76
8416;BME280;4245;42.120;24.732;2023-05-19T06:46:20;99474.44;;;20.85;72.51
8416;BME280;4245;42.120;24.732;2023-05-19T06:48:47;99478.16;;;21.00;72.01
8416;BME280;4245;42.120;24.732;2023-05-19T06:51:13;99475.78;;;20.97;71.37
8416;BME280;4245;42.120;24.732;2023-05-19T06:53:47;99481.72;;;21.33;70.26
8416;BME280;4245;42.120;24.732;2023-05-19T06:56:14;99483.41;;;21.25;71.80
8416;BME280;4245;42.120;24.732;2023-05-19T06:58:41;99479.66;;;21.43;71.28
8416;BME280;4245;42.120;24.732;2023-05-19T07:01:08;99480.28;;;21.61;69.77
8416;BME280;4245;42.120;24.732;2023-05-19T07:03:34;99472.19;;;21.61;69.43
8416;BME280;4245;42.120;24.732;2023-05-19T07:06:01;99482.16;;;21.60;68.58
8416;BME280;4245;42.120;24.732;2023-05-19T07:08:28;99489.28;;;21.45;69.59
8416;BME280;4245;42.120;24.732;2023-05-19T07:10:56;99485.59;;;21.22;70.38
8416;BME280;4245;42.120;24.732;2023-05-19T07:13:23;99474.78;;;20.98;71.48
8416;BME280;4245;42.120;24.732;2023-05-19T07:15:50;99479.00;;;21.16;70.14
8416;BME280;4245;42.120;24.732;2023-05-19T07:18:20;99469.88;;;21.09;69.44
8416;BME280;4245;42.120;24.732;2023-05-19T07:20:46;99462.63;;;20.61;72.77
8416;BME280;4245;42.120;24.732;2023-05-19T07:23:13;99479.50;;;20.79;71.34
8416;BME280;4245;42.120;24.732;2023-05-19T07:25:40;99479.50;;;20.71;73.49
8416;BME280;4245;42.120;24.732;2023-05-19T07:28:08;99467.69;;;20.80;75.70
8416;BME280;4245;42.120;24.732;2023-05-19T07:30:35;99469.19;;;21.40;73.94
8416;BME280;4245;42.120;24.732;2023-05-19T07:33:02;99467.84;;;21.99;70.38
8416;BME280;4245;42.120;24.732;2023-05-19T07:35:29;99470.53;;;22.38;67.89
8416;BME280;4245;42.120;24.732;2023-05-19T07:37:55;99472.78;;;21.87;68.59
8416;BME280;4245;42.120;24.732;2023-05-19T07:40:22;99493.16;;;22.14;68.89
8416;BME280;4245;42.120;24.732;2023-05-19T07:42:49;99460.16;;;22.19;68.45
8416;BME280;4245;42.120;24.732;2023-05-19T07:45:17;99463.56;;;22.66;66.73
8416;BME280;4245;42.120;24.732;2023-05-19T07:47:44;99487.50;;;23.08;65.19
8416;BME280;4245;42.120;24.732;2023-05-19T07:50:11;99484.31;;;22.82;65.07
8416;BME280;4245;42.120;24.732;2023-05-19T07:52:37;99483.72;;;22.72;65.51
8416;BME280;4245;42.120;24.732;2023-05-19T07:55:05;99501.31;;;22.68;66.01
8416;BME280;4245;42.120;24.732;2023-05-19T07:57:31;99485.28;;;22.89;65.96
8416;BME280;4245;42.120;24.732;2023-05-19T07:59:58;99506.00;;;22.82;65.44
8416;BME280;4245;42.120;24.732;2023-05-19T08:02:26;99492.06;;;22.31;67.34
8416;BME280;4245;42.120;24.732;2023-05-19T08:04:53;99495.69;;;22.46;67.11
8416;BME280;4245;42.120;24.732;2023-05-19T08:07:20;99484.91;;;22.69;66.56
8416;BME280;4245;42.120;24.732;2023-05-19T08:09:47;99490.22;;;22.85;66.85
8416;BME280;4245;42.120;24.732;2023-05-19T08:12:14;99506.97;;;22.89;64.71
8416;BME280;4245;42.120;24.732;2023-05-19T08:14:41;99508.13;;;22.64;65.09
8416;BME280;4245;42.120;24.732;2023-05-19T08:17:07;99495.22;;;22.66;66.45
8416;BME280;4245;42.120;24.732;2023-05-19T08:19:35;99498.28;;;23.16;63.94
8416;BME280;4245;42.120;24.732;2023-05-19T08:22:02;99495.94;;;22.90;65.32
8416;BME280;4245;42.120;24.732;2023-05-19T08:24:29;99492.47;;;23.19;63.65
8416;BME280;4245;42.120;24.732;2023-05-19T08:26:57;99488.00;;;23.78;62.94
8416;BME280;4245;42.120;24.732;2023-05-19T08:29:23;99496.75;;;24.54;60.18
8416;BME280;4245;42.120;24.732;2023-05-19T08:31:50;99497.06;;;25.01;58.57
8416;BME280;4245;42.120;24.732;2023-05-19T08:34:17;99500.16;;;25.20;58.49
8416;BME280;4245;42.120;24.732;2023-05-19T08:36:45;99493.38;;;25.09;57.56
8416;BME280;4245;42.120;24.732;2023-05-19T08:39:12;99496.84;;;24.82;57.46
8416;BME280;4245;42.120;24.732;2023-05-19T08:41:40;99491.75;;;25.15;56.09
8416;BME280;4245;42.120;24.732;2023-05-19T08:44:07;99492.06;;;25.05;55.80
8416;BME280;4245;42.120;24.732;2023-05-19T08:46:34;99493.59;;;24.72;57.86
8416;BME280;4245;42.120;24.732;2023-05-19T08:49:06;99488.25;;;24.78;56.10
8416;BME280;4245;42.120;24.732;2023-05-19T08:51:38;99495.91;;;25.10;55.76
8416;BME280;4245;42.120;24.732;2023-05-19T08:54:13;99489.44;;;25.12;53.74
8416;BME280;4245;42.120;24.732;2023-05-19T08:56:42;99486.63;;;25.26;54.59
8416;BME280;4245;42.120;24.732;2023-05-19T08:59:10;99494.78;;;26.16;50.82
8416;BME280;4245;42.120;24.732;2023-05-19T09:01:38;99485.69;;;26.03;49.94
8416;BME280;4245;42.120;24.732;2023-05-19T09:04:05;99493.09;;;26.63;46.85
8416;BME280;4245;42.120;24.732;2023-05-19T09:06:32;99486.53;;;26.44;47.97
8416;BME280;4245;42.120;24.732;2023-05-19T09:08:59;99490.13;;;26.51;48.91
8416;BME280;4245;42.120;24.732;2023-05-19T09:11:27;99489.09;;;26.52;48.41
8416;BME280;4245;42.120;24.732;2023-05-19T09:13:54;99487.75;;;27.02;49.33
8416;BME280;4245;42.120;24.732;2023-05-19T09:16:21;99482.69;;;27.91;47.18
8416;BME280;4245;42.120;24.732;2023-05-19T09:18:55;99477.13;;;28.69;43.45
8416;BME280;4245;42.120;24.732;2023-05-19T09:21:26;99482.41;;;29.02;42.99
8416;BME280;4245;42.120;24.732;2023-05-19T09:23:55;99476.59;;;29.48;40.79
8416;BME280;4245;42.120;24.732;2023-05-19T09:26:22;99488.91;;;29.57;38.29
8416;BME280;4245;42.120;24.732;2023-05-19T09:28:50;99493.25;;;28.83;40.23
8416;BME280;4245;42.120;24.732;2023-05-19T09:31:17;99490.78;;;29.07;41.03
8416;BME280;4245;42.120;24.732;2023-05-19T09:33:44;99487.25;;;29.99;38.61
8416;BME280;4245;42.120;24.732;2023-05-19T09:36:10;99499.75;;;30.49;37.70
8416;BME280;4245;42.120;24.732;2023-05-19T09:38:38;99484.25;;;30.85;37.31
8416;BME280;4245;42.120;24.732;2023-05-19T09:41:06;99490.00;;;30.95;37.46
8416;BME280;4245;42.120;24.732;2023-05-19T09:43:34;99484.78;;;31.46;37.24
8416;BME280;4245;42.120;24.732;2023-05-19T09:46:04;99485.13;;;32.08;34.35
8416;BME280;4245;42.120;24.732;2023-05-19T09:48:31;99487.47;;;31.12;34.85
8416;BME280;4245;42.120;24.732;2023-05-19T09:50:59;99483.03;;;30.69;36.33
8416;BME280;4245;42.120;24.732;2023-05-19T09:53:28;99479.59;;;30.74;37.24
8416;BME280;4245;42.120;24.732;2023-05-19T09:55:56;99475.44;;;30.94;36.02
8416;BME280;4245;42.120;24.732;2023-05-19T09:58:23;99482.19;;;30.32;37.41
8416;BME280;4245;42.120;24.732;2023-05-19T10:00:50;99471.13;;;30.09;37.73
8416;BME280;4245;42.120;24.732;2023-05-19T10:03:20;99477.88;;;29.63;38.73
8416;BME280;4245;42.120;24.732;2023-05-19T10:05:49;99468.00;;;29.13;38.88
8416;BME280;4245;42.120;24.732;2023-05-19T10:08:16;99462.22;;;28.96;38.70
8416;BME280;4245;42.120;24.732;2023-05-19T10:10:45;99467.28;;;28.10;38.99
8416;BME280;4245;42.120;24.732;2023-05-19T10:13:12;99458.81;;;27.54;41.19
8416;BME280;4245;42.120;24.732;2023-05-19T10:15:39;99460.09;;;27.25;42.58
8416;BME280;4245;42.120;24.732;2023-05-19T10:18:08;99455.88;;;27.09;44.04
8416;BME280;4245;42.120;24.732;2023-05-19T10:20:36;99450.31;;;26.50;44.94
8416;BME280;4245;42.120;24.732;2023-05-19T10:23:04;99459.78;;;26.20;46.38
8416;BME280;4245;42.120;24.732;2023-05-19T10:25:31;99446.72;;;26.36;46.37
8416;BME280;4245;42.120;24.732;2023-05-19T10:28:03;99441.94;;;26.58;45.09
8416;BME280;4245;42.120;24.732;2023-05-19T10:30:34;99438.16;;;26.59;45.85
8416;BME280;4245;42.120;24.732;2023-05-19T10:33:03;99435.59;;;26.31;47.26
8416;BME280;4245;42.120;24.732;2023-05-19T10:35:51;99437.75;;;26.56;44.82
8416;BME280;4245;42.120;24.732;2023-05-19T10:38:26;99440.56;;;27.35;43.34
8416;BME280;4245;42.120;24.732;2023-05-19T10:41:03;99443.28;;;28.25;42.15
8416;BME280;4245;42.120;24.732;2023-05-19T10:43:41;99444.47;;;29.30;40.27
8416;BME280;4245;42.120;24.732;2023-05-19T10:46:10;99441.22;;;29.46;40.60
8416;BME280;4245;42.120;24.732;2023-05-19T10:48:37;99445.34;;;29.55;39.50
8416;BME280;4245;42.120;24.732;2023-05-19T10:51:05;99442.41;;;29.32;38.89
8416;BME280;4245;42.120;24.732;2023-05-19T10:53:40;99440.16;;;29.47;39.16
8416;BME280;4245;42.120;24.732;2023-05-19T10:56:11;99442.53;;;29.12;39.69
8416;BME280;4245;42.120;24.732;2023-05-19T10:58:48;99437.38;;;29.04;40.56
8416;BME280;4245;42.120;24.732;2023-05-19T11:01:17;99445.06;;;29.14;40.90
8416;BME280;4245;42.120;24.732;2023-05-19T11:03:46;99447.03;;;29.31;39.89
8416;BME280;4245;42.120;24.732;2023-05-19T11:06:18;99448.72;;;29.32;39.37
8416;BME280;4245;42.120;24.732;2023-05-19T11:08:46;99455.56;;;29.17;39.17
8416;BME280;4245;42.120;24.732;2023-05-19T11:11:14;99454.56;;;29.36;38.58
8416;BME280;4245;42.120;24.732;2023-05-19T11:13:42;99480.78;;;28.94;36.50
8416;BME280;4245;42.120;24.732;2023-05-19T11:16:12;99480.22;;;26.37;42.06
8416;BME280;4245;42.120;24.732;2023-05-19T11:18:39;99467.69;;;25.61;45.23
8416;BME280;4245;42.120;24.732;2023-05-19T11:21:06;99459.00;;;24.80;47.86
8416;BME280;4245;42.120;24.732;2023-05-19T11:23:37;99457.88;;;24.17;50.95
8416;BME280;4245;42.120;24.732;2023-05-19T11:26:05;99457.50;;;24.56;51.04
8416;BME280;4245;42.120;24.732;2023-05-19T11:28:33;99448.94;;;25.23;47.36
8416;BME280;4245;42.120;24.732;2023-05-19T11:31:01;99445.03;;;25.32;47.41
8416;BME280;4245;42.120;24.732;2023-05-19T11:33:28;99442.59;;;25.65;47.86
8416;BME280;4245;42.120;24.732;2023-05-19T11:35:57;99438.19;;;26.79;45.37
8416;BME280;4245;42.120;24.732;2023-05-19T11:38:25;99439.50;;;27.22;42.64
8416;BME280;4245;42.120;24.732;2023-05-19T11:40:54;99427.72;;;27.61;40.65
8416;BME280;4245;42.120;24.732;2023-05-19T11:43:22;99432.28;;;27.81;40.98
8416;BME280;4245;42.120;24.732;2023-05-19T11:45:49;99440.66;;;28.81;39.09
8416;BME280;4245;42.120;24.732;2023-05-19T11:48:16;99435.72;;;28.65;37.39
8416;BME280;4245;42.120;24.732;2023-05-19T11:50:45;99427.97;;;28.18;39.29
8416;BME280;4245;42.120;24.732;2023-05-19T11:53:13;99433.72;;;28.47;38.87
8416;BME280;4245;42.120;24.732;2023-05-19T11:55:45;99429.69;;;27.99;40.76
8416;BME280;4245;42.120;24.732;2023-05-19T11:58:13;99433.06;;;28.07;40.00
8416;BME280;4245;42.120;24.732;2023-05-19T12:00:43;99428.22;;;28.16;39.87
8416;BME280;4245;42.120;24.732;2023-05-19T12:03:11;99430.88;;;28.23;38.97
8416;BME280;4245;42.120;24.732;2023-05-19T12:05:42;99427.69;;;29.26;37.92
8416;BME280;4245;42.120;24.732;2023-05-19T12:08:10;99428.81;;;29.44;38.14
8416;BME280;4245;42.120;24.732;2023-05-19T12:10:37;99427.44;;;29.96;36.49
8416;BME280;4245;42.120;24.732;2023-05-19T12:13:04;99419.81;;;29.61;36.76
8416;BME280;4245;42.120;24.732;2023-05-19T12:15:34;99418.59;;;30.42;36.03
8416;BME280;4245;42.120;24.732;2023-05-19T12:18:02;99414.34;;;29.98;35.76
8416;BME280;4245;42.120;24.732;2023-05-19T12:20:29;99417.38;;;29.04;37.26
8416;BME280;4245;42.120;24.732;2023-05-19T12:22:59;99404.19;;;28.63;38.72
8416;BME280;4245;42.120;24.732;2023-05-19T12:25:27;99415.47;;;29.72;37.54
8416;BME280;4245;42.120;24.732;2023-05-19T12:27:56;99410.47;;;30.53;35.83
8416;BME280;4245;42.120;24.732;2023-05-19T12:30:25;99412.53;;;30.70;34.39
8416;BME280;4245;42.120;24.732;2023-05-19T12:32:55;99409.16;;;29.71;36.57
8416;BME280;4245;42.120;24.732;2023-05-19T12:35:25;99405.72;;;29.58;36.69
8416;BME280;4245;42.120;24.732;2023-05-19T12:37:53;99406.00;;;30.22;35.48
8416;BME280;4245;42.120;24.732;2023-05-19T12:40:20;99410.00;;;30.56;35.44
8416;BME280;4245;42.120;24.732;2023-05-19T12:42:47;99403.72;;;31.67;33.04
8416;BME280;4245;42.120;24.732;2023-05-19T12:45:19;99409.88;;;31.86;31.87
8416;BME280;4245;42.120;24.732;2023-05-19T12:47:47;99411.16;;;32.18;32.21
8416;BME280;4245;42.120;24.732;2023-05-19T12:50:16;99406.06;;;32.39;31.44
8416;BME280;4245;42.120;24.732;2023-05-19T12:52:44;99405.69;;;32.92;31.14
8416;BME280;4245;42.120;24.732;2023-05-19T12:55:12;99405.75;;;33.13;29.85
8416;BME280;4245;42.120;24.732;2023-05-19T12:57:42;99395.84;;;32.51;29.97
8416;BME280;4245;42.120;24.732;2023-05-19T13:00:12;99395.72;;;31.31;31.75
8416;BME280;4245;42.120;24.732;2023-05-19T13:02:56;99389.94;;;30.97;31.93
8416;BME280;4245;42.120;24.732;2023-05-19T13:05:25;99385.53;;;30.55;33.09
8416;BME280;4245;42.120;24.732;2023-05-19T13:07:55;99389.28;;;31.37;33.04
8416;BME280;4245;42.120;24.732;2023-05-19T13:10:23;99390.63;;;31.98;32.10
8416;BME280;4245;42.120;24.732;2023-05-19T13:12:51;99386.22;;;32.37;31.39
8416;BME280;4245;42.120;24.732;2023-05-19T13:15:18;99393.84;;;32.06;30.81